createdAt,value
2018-04-01T00:00:20.686Z,32.9
2018-04-01T00:01:21.428Z,34.0
2018-04-01T00:02:22.146Z,33.9
2018-04-01T00:03:22.943Z,34.3
2018-04-01T00:04:23.686Z,34.5
2018-04-01T00:05:24.496Z,32.9
2018-04-01T00:06:25.215Z,34.4
2018-04-01T00:07:25.942Z,34.5
2018-04-01T00:08:26.662Z,33.8
2018-04-01T00:09:27.401Z,34.2
2018-04-01T00:10:28.130Z,34.6
2018-04-01T00:11:28.839Z,36.4
2018-04-01T00:12:29.629Z,36.4
2018-04-01T00:13:30.415Z,36.3
2018-04-01T00:14:31.150Z,34.8
2018-04-01T00:15:31.938Z,36.9
2018-04-01T00:16:32.732Z,36.8
2018-04-01T00:17:33.466Z,35.8
2018-04-01T00:18:34.244Z,36.5
2018-04-01T00:19:34.976Z,38.9
2018-04-01T00:20:35.704Z,38.8
2018-04-01T00:21:36.436Z,39.7
2018-04-01T00:22:37.166Z,37.9
2018-04-01T00:23:37.926Z,39.9
2018-04-01T00:24:38.658Z,39.7
2018-04-01T00:25:39.381Z,40.4
2018-04-01T00:26:40.176Z,40.2
2018-04-01T00:27:40.900Z,39.6
2018-04-01T00:28:41.655Z,39.3
2018-04-01T00:29:42.381Z,40.0
2018-04-01T00:30:43.108Z,39.8
2018-04-01T00:31:43.897Z,41.1
2018-04-01T00:32:44.635Z,40.2
2018-04-01T00:33:45.350Z,40.0
2018-04-01T00:34:46.071Z,39.4
2018-04-01T00:35:46.860Z,39.2
2018-04-01T00:36:47.580Z,40.6
2018-04-01T00:37:48.382Z,39.6
2018-04-01T00:38:49.114Z,39.9
2018-04-01T00:39:49.852Z,40.5
2018-04-01T00:40:50.632Z,41.0
2018-04-01T00:41:51.410Z,40.3
2018-04-01T00:42:52.141Z,40.5
2018-04-01T00:43:52.875Z,39.6
2018-04-01T00:44:53.595Z,39.5
2018-04-01T00:45:54.705Z,39.4
2018-04-01T00:46:55.419Z,41.4
2018-04-01T00:47:56.154Z,39.7
2018-04-01T00:48:56.886Z,39.2
2018-04-01T00:49:57.604Z,39.5
2018-04-01T00:50:58.445Z,41.4
2018-04-01T00:51:59.196Z,38.0
2018-04-01T00:53:00.033Z,39.5
2018-04-01T00:54:00.852Z,39.8
2018-04-01T00:55:01.592Z,39.4
2018-04-01T00:56:02.317Z,40.0
2018-04-01T00:57:03.037Z,39.3
2018-04-01T00:58:03.850Z,38.8
2018-04-01T00:59:04.633Z,39.3
2018-04-01T01:00:05.355Z,39.3
2018-04-01T01:01:06.075Z,37.5
2018-04-01T01:02:06.793Z,37.7
2018-04-01T01:03:07.520Z,40.0
2018-04-01T01:04:08.243Z,39.1
2018-04-01T01:05:08.973Z,39.4
2018-04-01T01:06:09.697Z,38.3
2018-04-01T01:07:10.506Z,38.7
2018-04-01T01:08:11.223Z,37.3
2018-04-01T01:09:11.972Z,38.7
2018-04-01T01:10:12.836Z,35.7
2018-04-01T01:11:13.507Z,39.8
2018-04-01T01:12:14.296Z,37.8
2018-04-01T01:13:15.013Z,35.8
2018-04-01T01:14:15.746Z,37.0
2018-04-01T01:15:16.480Z,36.6
2018-04-01T01:16:17.185Z,35.8
2018-04-01T01:17:17.949Z,34.9
2018-04-01T01:18:18.678Z,35.4
2018-04-01T01:19:19.491Z,34.6
2018-04-01T01:20:20.338Z,36.9
2018-04-01T01:21:21.059Z,36.0
2018-04-01T01:22:21.798Z,36.2
2018-04-01T01:23:22.543Z,35.5
2018-04-01T01:24:23.333Z,35.9
2018-04-01T01:25:24.066Z,34.9
2018-04-01T01:26:24.851Z,36.0
2018-04-01T01:27:25.581Z,35.1
2018-04-01T01:28:26.304Z,40.6
2018-04-01T01:29:27.036Z,35.0
2018-04-01T01:30:27.803Z,37.2
2018-04-01T01:31:28.529Z,36.3
2018-04-01T01:32:29.250Z,35.1
2018-04-01T01:33:29.922Z,34.9
2018-04-01T01:34:30.646Z,34.9
2018-04-01T01:35:31.440Z,34.9
2018-04-01T01:36:32.232Z,33.5
2018-04-01T01:37:33.047Z,34.1
2018-04-01T01:38:33.787Z,33.3
2018-04-01T01:39:34.520Z,34.2
2018-04-01T01:40:35.309Z,34.3
2018-04-01T01:41:36.025Z,34.9
2018-04-01T01:42:36.744Z,34.5
2018-04-01T01:43:37.544Z,33.1
2018-04-01T01:44:38.281Z,33.9
2018-04-01T01:45:39.058Z,33.8
2018-04-01T01:46:39.764Z,34.7
2018-04-01T01:47:40.495Z,34.8
2018-04-01T01:48:41.206Z,33.9
2018-04-01T01:49:41.934Z,34.0
2018-04-01T01:50:42.698Z,32.9
2018-04-01T01:51:43.440Z,33.4
2018-04-01T01:52:44.217Z,33.6
2018-04-01T01:53:45.008Z,33.4
2018-04-01T01:54:45.803Z,34.7
2018-04-01T01:55:46.547Z,35.5
2018-04-01T01:56:47.275Z,35.4
2018-04-01T01:57:47.985Z,35.1
2018-04-01T01:58:48.776Z,34.6
2018-04-01T01:59:49.497Z,34.8
2018-04-01T02:00:50.304Z,34.6
2018-04-01T02:01:51.115Z,34.9
2018-04-01T02:02:51.850Z,34.4
2018-04-01T02:03:52.572Z,34.7
2018-04-01T02:04:53.368Z,36.1
2018-04-01T02:05:54.181Z,35.1
2018-04-01T02:06:54.967Z,36.0
2018-04-01T02:07:55.683Z,34.9
2018-04-01T02:08:56.408Z,34.6
2018-04-01T02:09:57.208Z,34.9
2018-04-01T02:10:57.871Z,33.6
2018-04-01T02:11:58.647Z,34.8
2018-04-01T02:12:59.381Z,34.5
2018-04-01T02:14:00.153Z,33.5
2018-04-01T02:15:00.872Z,33.6
2018-04-01T02:16:01.593Z,34.4
2018-04-01T02:17:02.314Z,34.1
2018-04-01T02:18:03.036Z,33.9
2018-04-01T02:19:03.773Z,35.0
2018-04-01T02:20:04.559Z,35.8
2018-04-01T02:21:05.351Z,35.9
2018-04-01T02:22:06.136Z,36.2
2018-04-01T02:23:07.252Z,35.7
2018-04-01T02:24:08.044Z,35.8
2018-04-01T02:25:08.782Z,37.4
2018-04-01T02:26:09.494Z,37.9
2018-04-01T02:27:10.228Z,37.0
2018-04-01T02:28:11.001Z,36.8
2018-04-01T02:29:11.736Z,36.1
2018-04-01T02:30:12.477Z,36.4
2018-04-01T02:31:13.259Z,38.0
2018-04-01T02:32:14.001Z,35.9
2018-04-01T02:33:14.776Z,36.9
2018-04-01T02:34:15.570Z,37.3
2018-04-01T02:35:16.310Z,37.5
2018-04-01T02:36:17.040Z,36.4
2018-04-01T02:37:17.765Z,37.1
2018-04-01T02:38:18.462Z,35.6
2018-04-01T02:39:19.199Z,36.1
2018-04-01T02:40:20.019Z,36.3
2018-04-01T02:41:20.816Z,37.1
2018-04-01T02:42:21.589Z,39.1
2018-04-01T02:43:22.373Z,38.2
2018-04-01T02:44:23.097Z,39.2
2018-04-01T02:45:23.827Z,40.6
2018-04-01T02:46:24.645Z,40.3
2018-04-01T02:47:25.363Z,42.6
2018-04-01T02:48:26.163Z,41.8
2018-04-01T02:49:26.887Z,42.8
2018-04-01T02:50:27.692Z,42.8
2018-04-01T02:51:28.465Z,43.1
2018-04-01T02:52:29.244Z,42.0
2018-04-01T02:53:29.919Z,44.7
2018-04-01T02:54:30.700Z,43.7
2018-04-01T02:55:31.410Z,44.8
2018-04-01T02:56:32.141Z,45.2
2018-04-01T02:57:32.926Z,44.9
2018-04-01T02:58:33.737Z,45.4
2018-04-01T02:59:34.519Z,45.7
2018-04-01T03:00:35.236Z,47.0
2018-04-01T03:01:35.982Z,44.2
2018-04-01T03:02:36.674Z,44.5
2018-04-01T03:03:37.397Z,46.1
2018-04-01T03:04:38.161Z,47.6
2018-04-01T03:05:38.864Z,47.5
2018-04-01T03:06:39.581Z,47.6
2018-04-01T03:07:40.318Z,47.4
2018-04-01T03:08:41.121Z,48.9
2018-04-01T03:09:41.959Z,48.0
2018-04-01T03:10:42.752Z,48.2
2018-04-01T03:11:43.540Z,47.2
2018-04-01T03:12:44.246Z,47.4
2018-04-01T03:13:44.977Z,49.4
2018-04-01T03:14:45.991Z,47.6
2018-04-01T03:15:46.722Z,46.0
2018-04-01T03:16:47.513Z,48.0
2018-04-01T03:17:48.245Z,48.2
2018-04-01T03:18:49.011Z,48.6
2018-04-01T03:19:50.073Z,49.5
2018-04-01T03:20:50.877Z,49.3
2018-04-01T03:21:51.597Z,48.2
2018-04-01T03:22:52.417Z,48.0
2018-04-01T03:23:53.213Z,48.6
2018-04-01T03:24:53.948Z,47.7
2018-04-01T03:25:54.667Z,47.5
2018-04-01T03:26:55.748Z,47.5
2018-04-01T03:27:56.475Z,50.3
2018-04-01T03:28:57.202Z,49.2
2018-04-01T03:29:57.999Z,48.7
2018-04-01T03:30:58.715Z,49.1
2018-04-01T03:31:59.496Z,47.6
2018-04-01T03:33:00.217Z,48.2
2018-04-01T03:34:01.003Z,49.3
2018-04-01T03:35:01.742Z,47.7
2018-04-01T03:36:02.467Z,49.5
2018-04-01T03:37:03.247Z,49.5
2018-04-01T03:38:03.965Z,48.7
2018-04-01T03:39:04.679Z,49.4
2018-04-01T03:40:05.400Z,48.7
2018-04-01T03:41:06.122Z,47.9
2018-04-01T03:42:06.868Z,49.5
2018-04-01T03:43:07.588Z,49.5
2018-04-01T03:44:08.692Z,48.4
2018-04-01T03:45:09.406Z,48.8
2018-04-01T03:46:10.171Z,51.1
2018-04-01T03:47:10.882Z,47.0
2018-04-01T03:48:11.606Z,49.7
2018-04-01T03:49:12.621Z,48.3
2018-04-01T03:50:13.342Z,50.3
2018-04-01T03:51:14.076Z,51.2
2018-04-01T03:52:14.864Z,49.1
2018-04-01T03:53:15.653Z,49.8
2018-04-01T03:54:16.446Z,50.1
2018-04-01T03:55:17.177Z,51.4
2018-04-01T03:56:17.932Z,49.4
2018-04-01T03:57:18.671Z,48.6
2018-04-01T03:58:19.397Z,49.1
2018-04-01T03:59:20.184Z,49.8
2018-04-01T04:00:20.902Z,48.8
2018-04-01T04:01:21.708Z,49.7
2018-04-01T04:02:22.498Z,71.0
2018-04-01T04:03:23.167Z,51.9
2018-04-01T04:04:23.960Z,51.7
2018-04-01T04:05:24.697Z,50.7
2018-04-01T04:06:25.507Z,50.5
2018-04-01T04:07:26.236Z,49.1
2018-04-01T04:08:26.954Z,50.3
2018-04-01T04:09:27.659Z,49.2
2018-04-01T04:10:28.390Z,51.5
2018-04-01T04:11:29.093Z,51.3
2018-04-01T04:12:29.873Z,49.8
2018-04-01T04:13:30.613Z,51.1
2018-04-01T04:14:31.403Z,48.3
2018-04-01T04:15:32.134Z,51.0
2018-04-01T04:16:32.916Z,51.0
2018-04-01T04:17:33.762Z,50.6
2018-04-01T04:18:34.540Z,49.2
2018-04-01T04:19:35.263Z,49.7
2018-04-01T04:20:36.010Z,50.7
2018-04-01T04:21:36.796Z,52.4
2018-04-01T04:22:37.509Z,52.2
2018-04-01T04:23:38.232Z,50.9
2018-04-01T04:24:38.951Z,51.4
2018-04-01T04:25:39.682Z,51.1
2018-04-01T04:26:40.342Z,52.6
2018-04-01T04:27:41.157Z,52.4
2018-04-01T04:28:41.879Z,51.3
2018-04-01T04:29:42.607Z,50.8
2018-04-01T04:30:43.329Z,50.9
2018-04-01T04:31:44.140Z,51.4
2018-04-01T04:32:44.852Z,50.3
2018-04-01T04:33:45.571Z,54.4
2018-04-01T04:34:46.378Z,51.4
2018-04-01T04:35:47.168Z,51.9
2018-04-01T04:36:47.975Z,52.7
2018-04-01T04:37:48.710Z,49.6
2018-04-01T04:38:49.506Z,52.5
2018-04-01T04:39:50.306Z,53.1
2018-04-01T04:40:51.067Z,51.3
2018-04-01T04:41:51.775Z,52.7
2018-04-01T04:42:52.481Z,52.1
2018-04-01T04:43:53.213Z,52.7
2018-04-01T04:44:53.942Z,53.2
2018-04-01T04:45:54.666Z,52.4
2018-04-01T04:46:55.400Z,55.1
2018-04-01T04:47:56.109Z,54.6
2018-04-01T04:48:56.836Z,55.5
2018-04-01T04:49:57.562Z,55.5
2018-04-01T04:50:58.275Z,54.6
2018-04-01T04:51:59.076Z,55.6
2018-04-01T04:52:59.856Z,54.1
2018-04-01T04:54:00.582Z,52.6
2018-04-01T04:55:01.325Z,54.3
2018-04-01T04:56:02.126Z,55.1
2018-04-01T04:57:02.831Z,52.0
2018-04-01T04:58:03.620Z,52.6
2018-04-01T04:59:04.347Z,54.3
2018-04-01T05:00:05.126Z,55.8
2018-04-01T05:01:05.849Z,57.4
2018-04-01T05:02:06.584Z,57.5
2018-04-01T05:03:07.399Z,57.0
2018-04-01T05:04:08.459Z,59.2
2018-04-01T05:05:09.193Z,58.4
2018-04-01T05:06:10.012Z,58.9
2018-04-01T05:07:10.820Z,59.5
2018-04-01T05:08:11.633Z,58.3
2018-04-01T05:09:12.430Z,60.5
2018-04-01T05:10:13.220Z,60.1
2018-04-01T05:11:13.952Z,59.4
2018-04-01T05:12:14.679Z,60.9
2018-04-01T05:13:15.494Z,59.8
2018-04-01T05:14:16.286Z,58.5
2018-04-01T05:15:17.001Z,61.5
2018-04-01T05:16:17.721Z,61.0
2018-04-01T05:17:18.439Z,61.4
2018-04-01T05:18:19.175Z,59.7
2018-04-01T05:19:19.891Z,61.9
2018-04-01T05:20:20.609Z,60.6
2018-04-01T05:21:21.335Z,61.0
2018-04-01T05:22:22.105Z,59.9
2018-04-01T05:23:22.898Z,59.5
2018-04-01T05:24:23.637Z,58.9
2018-04-01T05:25:24.428Z,58.1
2018-04-01T05:26:25.249Z,58.4
2018-04-01T05:27:26.038Z,56.8
2018-04-01T05:28:26.837Z,57.9
2018-04-01T05:29:27.640Z,60.7
2018-04-01T05:30:28.372Z,60.3
2018-04-01T05:31:29.464Z,59.0
2018-04-01T05:32:30.269Z,57.6
2018-04-01T05:33:30.997Z,58.0
2018-04-01T05:34:31.723Z,58.3
2018-04-01T05:35:32.520Z,58.6
2018-04-01T05:36:33.305Z,59.7
2018-04-01T05:37:34.031Z,60.0
2018-04-01T05:38:34.761Z,58.8
2018-04-01T05:39:35.499Z,61.6
2018-04-01T05:40:36.302Z,62.9
2018-04-01T05:41:37.172Z,61.2
2018-04-01T05:42:37.964Z,60.5
2018-04-01T05:43:38.751Z,60.6
2018-04-01T05:44:39.481Z,59.4
2018-04-01T05:45:40.200Z,62.1
2018-04-01T05:46:41.305Z,60.1
2018-04-01T05:47:42.112Z,57.1
2018-04-01T05:48:42.835Z,57.8
2018-04-01T05:49:43.646Z,58.3
2018-04-01T05:50:44.374Z,57.4
2018-04-01T05:51:45.113Z,55.9
2018-04-01T05:52:45.849Z,56.3
2018-04-01T05:53:46.933Z,56.8
2018-04-01T05:54:47.651Z,55.6
2018-04-01T05:55:48.386Z,56.5
2018-04-01T05:56:49.204Z,56.1
2018-04-01T05:57:49.975Z,53.9
2018-04-01T05:58:50.752Z,55.1
2018-04-01T05:59:51.536Z,53.1
2018-04-01T06:00:52.256Z,54.3
2018-04-01T06:01:52.992Z,53.3
2018-04-01T06:02:53.706Z,54.0
2018-04-01T06:03:54.519Z,52.1
2018-04-01T06:04:55.599Z,55.2
2018-04-01T06:05:56.322Z,54.6
2018-04-01T06:06:57.111Z,56.0
2018-04-01T06:07:57.839Z,52.6
2018-04-01T06:08:58.635Z,53.2
2018-04-01T06:09:59.457Z,54.8
2018-04-01T06:11:00.235Z,51.5
2018-04-01T06:12:00.948Z,51.2
2018-04-01T06:13:01.665Z,49.8
2018-04-01T06:14:02.416Z,49.4
2018-04-01T06:15:03.120Z,50.0
2018-04-01T06:16:03.835Z,49.5
2018-04-01T06:17:04.561Z,49.9
2018-04-01T06:18:05.292Z,50.2
2018-04-01T06:19:06.126Z,52.3
2018-04-01T06:20:06.902Z,49.7
2018-04-01T06:21:07.682Z,50.5
2018-04-01T06:22:08.415Z,48.7
2018-04-01T06:23:09.133Z,51.3
2018-04-01T06:24:09.865Z,50.6
2018-04-01T06:25:10.596Z,50.5
2018-04-01T06:26:11.382Z,48.6
2018-04-01T06:27:12.115Z,47.9
2018-04-01T06:28:12.852Z,44.9
2018-04-01T06:29:13.643Z,42.8
2018-04-01T06:30:14.367Z,42.3
2018-04-01T06:31:15.116Z,44.9
2018-04-01T06:32:15.889Z,43.6
2018-04-01T06:33:16.669Z,42.6
2018-04-01T06:34:17.475Z,42.0
2018-04-01T06:35:18.210Z,42.2
2018-04-01T06:36:18.982Z,42.4
2018-04-01T06:37:19.719Z,43.4
2018-04-01T06:38:20.442Z,43.8
2018-04-01T06:39:21.166Z,42.5
2018-04-01T06:40:21.908Z,42.1
2018-04-01T06:41:22.673Z,42.2
2018-04-01T06:42:23.410Z,43.5
2018-04-01T06:43:24.232Z,41.3
2018-04-01T06:44:25.063Z,41.7
2018-04-01T06:45:25.806Z,41.3
2018-04-01T06:46:26.518Z,42.1
2018-04-01T06:47:27.252Z,40.5
2018-04-01T06:48:28.044Z,40.6
2018-04-01T06:49:28.833Z,40.7
2018-04-01T06:50:29.565Z,38.4
2018-04-01T06:51:30.374Z,37.5
2018-04-01T06:52:31.108Z,37.3
2018-04-01T06:53:31.904Z,38.6
2018-04-01T06:54:33.031Z,38.8
2018-04-01T06:55:33.763Z,37.3
2018-04-01T06:56:34.565Z,36.1
2018-04-01T06:57:35.294Z,37.8
2018-04-01T06:58:36.081Z,38.6
2018-04-01T06:59:36.869Z,37.4
2018-04-01T07:00:37.606Z,37.2
2018-04-01T07:01:38.327Z,38.8
2018-04-01T07:02:39.054Z,38.9
2018-04-01T07:03:39.814Z,39.4
2018-04-01T07:04:40.585Z,40.6
2018-04-01T07:05:41.312Z,37.7
2018-04-01T07:06:42.095Z,39.8
2018-04-01T07:07:42.891Z,41.0
2018-04-01T07:08:43.629Z,40.9
2018-04-01T07:09:44.490Z,39.7
2018-04-01T07:10:45.302Z,38.9
2018-04-01T07:11:46.075Z,40.4
2018-04-01T07:12:46.876Z,40.7
2018-04-01T07:13:47.682Z,39.3
2018-04-01T07:14:48.742Z,39.8
2018-04-01T07:15:49.487Z,40.8
2018-04-01T07:16:50.225Z,38.8
2018-04-01T07:17:51.002Z,39.9
2018-04-01T07:18:51.806Z,39.0
2018-04-01T07:19:52.527Z,38.9
2018-04-01T07:20:53.352Z,38.6
2018-04-01T07:21:54.126Z,39.3
2018-04-01T07:22:54.853Z,36.6
2018-04-01T07:23:55.650Z,38.7
2018-04-01T07:24:56.455Z,36.5
2018-04-01T07:25:57.178Z,36.4
2018-04-01T07:26:57.900Z,35.9
2018-04-01T07:27:58.631Z,35.8
2018-04-01T07:28:59.364Z,34.5
2018-04-01T07:30:00.086Z,37.0
2018-04-01T07:31:00.905Z,33.8
2018-04-01T07:32:01.690Z,31.5
2018-04-01T07:33:02.427Z,33.0
2018-04-01T07:34:03.159Z,32.9
2018-04-01T07:35:03.883Z,34.5
2018-04-01T07:36:04.611Z,33.6
2018-04-01T07:37:05.338Z,34.0
2018-04-01T07:38:06.065Z,33.3
2018-04-01T07:39:06.882Z,33.1
2018-04-01T07:40:07.613Z,34.2
2018-04-01T07:41:08.346Z,32.3
2018-04-01T07:42:09.074Z,31.3
2018-04-01T07:43:09.885Z,35.0
2018-04-01T07:44:10.677Z,33.8
2018-04-01T07:45:11.412Z,31.8
2018-04-01T07:46:12.139Z,32.9
2018-04-01T07:47:12.862Z,34.1
2018-04-01T07:48:13.574Z,33.3
2018-04-01T07:49:14.368Z,33.0
2018-04-01T07:50:15.162Z,33.5
2018-04-01T07:51:15.950Z,32.6
2018-04-01T07:52:16.683Z,32.8
2018-04-01T07:53:17.481Z,30.4
2018-04-01T07:54:18.213Z,29.3
2018-04-01T07:55:19.032Z,32.7
2018-04-01T07:56:19.755Z,33.2
2018-04-01T07:57:20.487Z,33.4
2018-04-01T07:58:21.251Z,30.2
2018-04-01T07:59:22.010Z,30.9
2018-04-01T08:00:22.732Z,29.6
2018-04-01T08:01:23.509Z,29.8
2018-04-01T08:02:24.274Z,30.0
2018-04-01T08:03:25.004Z,31.1
2018-04-01T08:04:25.765Z,30.8
2018-04-01T08:05:26.543Z,31.2
2018-04-01T08:06:27.336Z,31.3
2018-04-01T08:07:28.418Z,31.6
2018-04-01T08:08:29.138Z,31.8
2018-04-01T08:09:29.872Z,31.3
2018-04-01T08:10:30.674Z,31.6
2018-04-01T08:11:31.447Z,30.8
2018-04-01T08:12:32.186Z,30.3
2018-04-01T08:13:32.911Z,32.1
2018-04-01T08:14:33.638Z,31.9
2018-04-01T08:15:34.433Z,32.1
2018-04-01T08:16:35.170Z,31.6
2018-04-01T08:17:35.884Z,30.8
2018-04-01T08:18:36.632Z,32.8
2018-04-01T08:19:37.361Z,31.8
2018-04-01T08:20:38.090Z,31.2
2018-04-01T08:21:38.828Z,31.2
2018-04-01T08:22:39.562Z,32.0
2018-04-01T08:23:40.364Z,30.9
2018-04-01T08:24:41.164Z,30.5
2018-04-01T08:25:41.995Z,29.5
2018-04-01T08:26:42.710Z,31.0
2018-04-01T08:27:43.446Z,30.4
2018-04-01T08:28:44.248Z,31.6
2018-04-01T08:29:45.096Z,32.4
2018-04-01T08:30:45.836Z,31.7
2018-04-01T08:31:46.569Z,31.8
2018-04-01T08:32:47.304Z,31.0
2018-04-01T08:33:48.104Z,29.6
2018-04-01T08:34:49.166Z,28.0
2018-04-01T08:35:49.900Z,30.3
2018-04-01T08:36:50.693Z,30.2
2018-04-01T08:37:51.421Z,30.9
2018-04-01T08:38:52.224Z,30.6
2018-04-01T08:39:53.011Z,30.6
2018-04-01T08:40:53.749Z,30.7
2018-04-01T08:41:54.476Z,32.5
2018-04-01T08:42:55.305Z,29.7
2018-04-01T08:43:56.012Z,30.8
2018-04-01T08:44:56.815Z,30.1
2018-04-01T08:45:57.541Z,29.7
2018-04-01T08:46:58.328Z,28.4
2018-04-01T08:47:59.060Z,30.2
2018-04-01T08:48:59.794Z,29.8
2018-04-01T08:50:00.568Z,30.4
2018-04-01T08:51:01.286Z,29.4
2018-04-01T08:52:02.013Z,29.8
2018-04-01T08:53:02.731Z,30.0
2018-04-01T08:54:03.474Z,32.0
2018-04-01T08:55:04.211Z,29.0
2018-04-01T08:56:04.995Z,29.3
2018-04-01T08:57:05.713Z,29.4
2018-04-01T08:58:06.445Z,29.7
2018-04-01T08:59:07.223Z,29.1
2018-04-01T09:00:08.019Z,28.0
2018-04-01T09:01:08.761Z,28.3
2018-04-01T09:02:09.490Z,29.6
2018-04-01T09:03:10.296Z,28.8
2018-04-01T09:04:11.030Z,27.9
2018-04-01T09:05:11.770Z,28.7
2018-04-01T09:06:12.483Z,29.0
2018-04-01T09:07:13.218Z,28.2
2018-04-01T09:08:13.929Z,31.8
2018-04-01T09:09:14.666Z,45.6
2018-04-01T09:10:15.465Z,42.5
2018-04-01T09:11:16.594Z,28.2
2018-04-01T09:12:17.322Z,29.5
2018-04-01T09:13:18.110Z,28.0
2018-04-01T09:14:18.846Z,29.0
2018-04-01T09:15:19.583Z,28.7
2018-04-01T09:16:20.313Z,29.0
2018-04-01T09:17:21.110Z,29.6
2018-04-01T09:18:21.853Z,29.3
2018-04-01T09:19:22.622Z,27.2
2018-04-01T09:20:23.416Z,27.6
2018-04-01T09:21:24.221Z,28.8
2018-04-01T09:22:24.945Z,28.4
2018-04-01T09:23:25.665Z,28.5
2018-04-01T09:24:26.419Z,28.2
2018-04-01T09:25:27.211Z,28.8
2018-04-01T09:26:27.928Z,27.2
2018-04-01T09:27:28.649Z,24.6
2018-04-01T09:28:29.397Z,25.0
2018-04-01T09:29:30.184Z,26.3
2018-04-01T09:30:30.925Z,27.8
2018-04-01T09:31:31.728Z,23.8
2018-04-01T09:32:32.532Z,22.5
2018-04-01T09:33:33.605Z,24.0
2018-04-01T09:34:34.274Z,22.5
2018-04-01T09:35:35.001Z,24.4
2018-04-01T09:36:35.720Z,27.2
2018-04-01T09:37:36.468Z,24.2
2018-04-01T09:38:37.204Z,23.7
2018-04-01T09:39:37.957Z,23.5
2018-04-01T09:40:38.738Z,25.2
2018-04-01T09:41:39.554Z,24.4
2018-04-01T09:42:40.301Z,24.1
2018-04-01T09:43:41.103Z,24.0
2018-04-01T09:44:41.835Z,25.7
2018-04-01T09:45:42.615Z,24.8
2018-04-01T09:46:43.347Z,26.7
2018-04-01T09:47:44.203Z,24.4
2018-04-01T09:48:44.922Z,23.7
2018-04-01T09:49:45.656Z,25.1
2018-04-01T09:50:46.439Z,25.9
2018-04-01T09:51:47.160Z,23.9
2018-04-01T09:52:47.901Z,23.1
2018-04-01T09:53:48.688Z,23.6
2018-04-01T09:54:49.518Z,24.6
2018-04-01T09:55:50.308Z,24.8
2018-04-01T09:56:51.057Z,24.1
2018-04-01T09:57:51.792Z,23.9
2018-04-01T09:58:52.515Z,24.2
2018-04-01T09:59:53.257Z,23.9
2018-04-01T10:00:53.986Z,23.8
2018-04-01T10:01:54.709Z,23.2
2018-04-01T10:02:56.236Z,21.7
2018-04-01T10:03:57.685Z,22.1
2018-04-01T10:04:58.525Z,22.3
2018-04-01T10:05:59.319Z,21.3
2018-04-01T10:07:00.179Z,21.8
2018-04-01T10:08:00.962Z,20.3
2018-04-01T10:09:01.688Z,19.8
2018-04-01T10:10:02.432Z,19.1
2018-04-01T10:11:03.162Z,19.1
2018-04-01T10:12:04.019Z,20.6
2018-04-01T10:13:04.749Z,19.7
2018-04-01T10:14:05.487Z,20.4
2018-04-01T10:15:06.226Z,19.4
2018-04-01T10:16:07.010Z,19.9
2018-04-01T10:17:07.789Z,19.6
2018-04-01T10:18:08.528Z,19.9
2018-04-01T10:19:09.324Z,19.4
2018-04-01T10:20:10.071Z,19.9
2018-04-01T10:21:10.775Z,19.7
2018-04-01T10:22:11.563Z,19.0
2018-04-01T10:23:12.293Z,18.9
2018-04-01T10:24:13.088Z,20.5
2018-04-01T10:25:13.813Z,19.9
2018-04-01T10:26:14.645Z,20.9
2018-04-01T10:27:15.378Z,20.4
2018-04-01T10:28:16.107Z,20.5
2018-04-01T10:29:17.688Z,20.3
2018-04-01T10:30:20.284Z,20.0
2018-04-01T10:31:22.332Z,21.9
2018-04-01T10:32:23.491Z,23.9
2018-04-01T10:33:25.249Z,20.2
2018-04-01T10:34:27.388Z,20.4
2018-04-01T10:35:29.703Z,20.1
2018-04-01T10:36:31.954Z,22.0
2018-04-01T10:37:33.552Z,25.3
2018-04-01T10:38:35.431Z,23.6
2018-04-01T10:39:36.460Z,22.9
2018-04-01T10:40:38.147Z,22.4
2018-04-01T10:41:39.635Z,21.2
2018-04-01T10:42:41.176Z,20.5
2018-04-01T10:43:43.242Z,23.5
2018-04-01T10:44:45.201Z,20.0
2018-04-01T10:45:46.288Z,20.6
2018-04-01T10:46:47.074Z,20.8
2018-04-01T10:47:48.418Z,20.8
2018-04-01T10:48:49.406Z,22.0
2018-04-01T10:49:50.492Z,19.9
2018-04-01T10:50:52.216Z,21.3
2018-04-01T10:51:54.202Z,22.5
2018-04-01T10:52:55.768Z,21.2
2018-04-01T10:53:57.077Z,20.2
2018-04-01T10:54:58.866Z,21.2
2018-04-01T10:55:59.932Z,21.3
2018-04-01T10:57:01.002Z,20.3
2018-04-01T10:58:01.904Z,19.7
2018-04-01T10:59:02.745Z,20.9
2018-04-01T11:00:03.541Z,20.9
2018-04-01T11:01:04.361Z,20.4
2018-04-01T11:02:05.491Z,20.8
2018-04-01T11:03:06.649Z,21.4
2018-04-01T11:04:08.193Z,20.6
2018-04-01T11:05:09.039Z,21.0
2018-04-01T11:06:10.202Z,20.7
2018-04-01T11:07:10.927Z,20.1
2018-04-01T11:08:11.710Z,20.1
2018-04-01T11:09:12.447Z,21.1
2018-04-01T11:10:13.179Z,21.6
2018-04-01T11:11:13.996Z,20.9
2018-04-01T11:12:14.814Z,20.2
2018-04-01T11:13:15.904Z,19.4
2018-04-01T11:14:16.636Z,19.7
2018-04-01T11:15:17.375Z,20.0
2018-04-01T11:16:18.103Z,19.8
2018-04-01T11:17:18.867Z,20.5
2018-04-01T11:18:20.293Z,19.6
2018-04-01T11:19:21.115Z,19.5
2018-04-01T11:20:21.920Z,18.9
2018-04-01T11:21:22.671Z,18.4
2018-04-01T11:22:23.416Z,17.7
2018-04-01T11:23:24.124Z,17.6
2018-04-01T11:24:25.227Z,16.8
2018-04-01T11:25:25.970Z,18.0
2018-04-01T11:26:26.699Z,17.4
2018-04-01T11:27:27.495Z,18.2
2018-04-01T11:28:28.181Z,18.6
2018-04-01T11:29:29.000Z,19.0
2018-04-01T11:30:29.756Z,18.9
2018-04-01T11:31:30.530Z,18.5
2018-04-01T11:32:31.282Z,19.3
2018-04-01T11:33:32.079Z,19.9
2018-04-01T11:34:33.126Z,19.8
2018-04-01T11:35:33.917Z,18.9
2018-04-01T11:36:34.668Z,19.4
2018-04-01T11:37:35.494Z,20.0
2018-04-01T11:38:36.285Z,20.6
2018-04-01T11:39:37.026Z,22.1
2018-04-01T11:40:37.760Z,21.1
2018-04-01T11:41:38.498Z,21.6
2018-04-01T11:42:39.222Z,20.8
2018-04-01T11:43:39.951Z,20.8
2018-04-01T11:44:40.679Z,21.2
2018-04-01T11:45:41.491Z,20.8
2018-04-01T11:46:42.246Z,20.6
2018-04-01T11:47:42.954Z,20.3
2018-04-01T11:48:43.694Z,19.9
2018-04-01T11:49:44.449Z,19.6
2018-04-01T11:50:45.186Z,18.9
2018-04-01T11:51:45.935Z,18.7
2018-04-01T11:52:46.656Z,19.0
2018-04-01T11:53:47.398Z,18.3
2018-04-01T11:54:48.135Z,19.1
2018-04-01T11:55:48.847Z,18.6
2018-04-01T11:56:49.880Z,18.7
2018-04-01T11:57:50.661Z,18.4
2018-04-01T11:58:51.405Z,20.1
2018-04-01T11:59:52.147Z,18.7
2018-04-01T12:00:52.967Z,18.8
2018-04-01T12:01:53.696Z,19.5
2018-04-01T12:02:54.465Z,19.5
2018-04-01T12:03:55.214Z,18.7
2018-04-01T12:04:55.953Z,19.4
2018-04-01T12:05:56.705Z,19.0
2018-04-01T12:06:57.429Z,20.0
2018-04-01T12:07:58.156Z,19.4
2018-04-01T12:08:59.287Z,19.3
2018-04-01T12:10:00.030Z,18.2
2018-04-01T12:11:00.768Z,17.5
2018-04-01T12:12:01.520Z,16.8
2018-04-01T12:13:02.263Z,17.2
2018-04-01T12:14:03.424Z,16.9
2018-04-01T12:15:04.149Z,17.6
2018-04-01T12:16:04.896Z,17.6
2018-04-01T12:17:05.712Z,16.8
2018-04-01T12:18:06.542Z,16.1
2018-04-01T12:19:07.283Z,17.2
2018-04-01T12:20:08.069Z,17.7
2018-04-01T12:21:08.791Z,18.1
2018-04-01T12:22:09.513Z,18.1
2018-04-01T12:23:10.240Z,18.2
2018-04-01T12:24:10.981Z,17.0
2018-04-01T12:25:11.709Z,17.5
2018-04-01T12:26:12.506Z,17.2
2018-04-01T12:27:13.301Z,15.8
2018-04-01T12:28:14.100Z,16.8
2018-04-01T12:29:14.897Z,16.5
2018-04-01T12:30:15.636Z,16.8
2018-04-01T12:31:16.364Z,16.2
2018-04-01T12:32:17.119Z,15.7
2018-04-01T12:33:17.930Z,15.9
2018-04-01T12:34:18.674Z,15.7
2018-04-01T12:35:19.452Z,15.8
2018-04-01T12:36:20.266Z,15.8
2018-04-01T12:37:21.036Z,16.6
2018-04-01T12:38:21.774Z,16.8
2018-04-01T12:39:22.496Z,16.5
2018-04-01T12:40:23.236Z,16.8
2018-04-01T12:41:24.015Z,17.3
2018-04-01T12:42:24.757Z,18.3
2018-04-01T12:43:25.559Z,17.9
2018-04-01T12:44:26.355Z,18.5
2018-04-01T12:45:27.136Z,19.2
2018-04-01T12:46:27.886Z,19.8
2018-04-01T12:47:28.678Z,18.8
2018-04-01T12:48:29.483Z,18.6
2018-04-01T12:49:30.205Z,19.3
2018-04-01T12:50:31.077Z,20.3
2018-04-01T12:51:31.881Z,19.1
2018-04-01T12:52:32.606Z,20.9
2018-04-01T12:53:33.363Z,20.1
2018-04-01T12:54:34.082Z,20.0
2018-04-01T12:55:34.825Z,20.3
2018-04-01T12:56:35.635Z,21.8
2018-04-01T12:57:36.434Z,21.3
2018-04-01T12:58:37.258Z,23.4
2018-04-01T12:59:37.988Z,22.7
2018-04-01T13:00:38.757Z,23.2
2018-04-01T13:01:39.498Z,23.3
2018-04-01T13:02:40.223Z,22.6
2018-04-01T13:03:40.958Z,23.7
2018-04-01T13:04:41.693Z,24.0
2018-04-01T13:05:42.492Z,24.2
2018-04-01T13:06:43.278Z,23.2
2018-04-01T13:07:44.013Z,24.4
2018-04-01T13:08:44.739Z,24.4
2018-04-01T13:09:45.474Z,25.2
2018-04-01T13:10:46.210Z,24.6
2018-04-01T13:11:47.019Z,25.3
2018-04-01T13:12:48.162Z,26.6
2018-04-01T13:13:48.969Z,24.2
2018-04-01T13:14:49.741Z,26.1
2018-04-01T13:15:50.449Z,25.5
2018-04-01T13:16:51.242Z,24.3
2018-04-01T13:17:51.966Z,21.9
2018-04-01T13:18:52.785Z,20.2
2018-04-01T13:19:53.519Z,19.7
2018-04-01T13:20:54.257Z,19.1
2018-04-01T13:21:54.995Z,19.6
2018-04-01T13:22:55.839Z,20.0
2018-04-01T13:23:56.578Z,20.5
2018-04-01T13:24:57.409Z,20.5
2018-04-01T13:25:58.230Z,18.6
2018-04-01T13:26:59.031Z,18.3
2018-04-01T13:27:59.847Z,17.8
2018-04-01T13:29:00.575Z,18.4